Time;durP1;ratioP1;P1;durP2;ratioP2;P2;SDS_P1;SDS_P2;PMS_P1;PMS_P2;Temp;Humidity;BMP_temperature;BMP_pressure;BME280_temperature;BME280_humidity;BME280_pressure;Samples;Min_cycle;Max_cycle;Signal;HPM_P1;HPM_P2
2021/11/03 00:02:17;;;;;;;4.10;1.27;;;24.60;50.20;;;;;;4159077;28;20049;-63
2021/11/03 00:04:40;;;;;;;3.13;1.00;;;24.60;50.20;;;;;;4158507;28;20033;-63
2021/11/03 00:07:04;;;;;;;9.05;1.45;;;24.70;49.80;;;;;;4154266;28;20037;-64
2021/11/03 00:09:27;;;;;;;10.10;1.70;;;24.70;50.50;;;;;;4159009;28;20377;-67
2021/11/03 00:11:50;;;;;;;7.97;1.63;;;24.70;50.90;;;;;;4161738;28;20047;-64
2021/11/03 00:14:12;;;;;;;4.70;1.60;;;24.80;51.30;;;;;;4158786;28;20131;-62
2021/11/03 00:16:35;;;;;;;8.10;1.40;;;24.90;51.80;;;;;;4158809;28;20114;-61
2021/11/03 00:18:57;;;;;;;9.30;1.70;;;24.90;51.90;;;;;;4158048;28;20046;-66
2021/11/03 00:21:20;;;;;;;5.50;1.27;;;25.00;52.00;;;;;;4159328;28;20045;-65
2021/11/03 00:23:43;;;;;;;4.03;1.38;;;25.10;52.10;;;;;;4155717;28;20073;-64
2021/11/03 00:26:05;;;;;;;6.03;1.77;;;25.10;52.20;;;;;;4159418;28;20048;-60
2021/11/03 00:28:28;;;;;;;3.88;1.55;;;25.20;52.20;;;;;;4159170;28;20040;-61
2021/11/03 00:30:54;;;;;;;2.17;1.30;;;25.20;52.40;;;;;;4160618;28;20059;-62
2021/11/03 00:33:18;;;;;;;4.53;1.20;;;25.20;52.40;;;;;;4159146;28;20037;-64
2021/11/03 00:35:40;;;;;;;1.80;1.08;;;25.30;52.50;;;;;;4158797;28;20044;-64
2021/11/03 00:38:03;;;;;;;3.58;1.17;;;25.30;52.50;;;;;;4158961;28;20041;-67
2021/11/03 00:40:25;;;;;;;3.13;1.35;;;25.40;52.60;;;;;;4159999;28;20041;-65
2021/11/03 00:42:47;;;;;;;5.05;1.20;;;25.40;52.70;;;;;;4158576;28;20136;-63
2021/11/03 00:45:10;;;;;;;5.10;1.48;;;25.40;52.80;;;;;;4159048;28;20043;-65
2021/11/03 00:47:33;;;;;;;4.05;1.65;;;25.40;53.00;;;;;;4159239;28;20655;-63
2021/11/03 00:49:55;;;;;;;2.72;1.00;;;25.50;52.90;;;;;;4159407;28;20048;-64
2021/11/03 00:52:18;;;;;;;5.18;1.35;;;25.60;53.00;;;;;;4159382;28;20032;-63
2021/11/03 00:54:40;;;;;;;3.17;0.85;;;25.60;53.00;;;;;;4160621;28;20511;-62
2021/11/03 00:57:03;;;;;;;3.05;1.10;;;25.60;52.90;;;;;;4157986;28;20037;-62
2021/11/03 00:59:25;;;;;;;3.28;0.90;;;25.60;52.90;;;;;;4157890;28;20685;-61
2021/11/03 01:02:12;;;;;;;3.90;1.23;;;25.70;52.50;;;;;;4193480;27;20433;-60
2021/11/03 01:04:34;;;;;;;1.20;0.90;;;25.70;53.10;;;;;;4193999;28;20495;-66
2021/11/03 01:06:57;;;;;;;3.63;1.17;;;25.80;53.00;;;;;;4191029;28;20068;-61
2021/11/03 01:09:20;;;;;;;1.20;0.80;;;25.80;52.50;;;;;;4189776;28;20700;-61
2021/11/03 01:11:42;;;;;;;4.95;1.48;;;25.80;52.20;;;;;;4177042;28;20043;-62
2021/11/03 01:14:07;;;;;;;3.80;1.60;;;25.90;52.00;;;;;;4176762;28;20270;-62
2021/11/03 01:16:30;;;;;;;3.75;1.48;;;25.90;51.00;;;;;;4177572;28;20045;-62
2021/11/03 01:18:53;;;;;;;3.65;2.22;;;25.90;51.20;;;;;;4177413;28;20424;-62
2021/11/03 01:21:16;;;;;;;4.18;2.00;;;25.80;50.80;;;;;;4177568;28;20052;-62
2021/11/03 01:23:38;;;;;;;3.72;1.80;;;25.90;50.80;;;;;;4175818;28;20838;-63
2021/11/03 01:26:01;;;;;;;3.75;1.90;;;25.90;50.60;;;;;;4171604;28;20044;-60
2021/11/03 01:28:24;;;;;;;3.78;1.90;;;25.90;50.40;;;;;;4172927;28;20060;-60
2021/11/03 01:30:47;;;;;;;3.30;2.03;;;25.90;50.10;;;;;;4173829;28;20075;-60
2021/11/03 01:33:09;;;;;;;4.10;1.80;;;25.90;50.20;;;;;;4175637;28;20044;-61
2021/11/03 01:35:33;;;;;;;4.75;2.00;;;25.90;50.30;;;;;;4173084;28;20039;-60
2021/11/03 01:37:56;;;;;;;2.85;1.70;;;25.90;50.20;;;;;;4175646;28;20029;-62
2021/11/03 01:40:20;;;;;;;;;;;25.90;50.40;;;;;;4174777;28;20770;-62
2021/11/03 01:42:43;;;;;;;5.10;1.77;;;25.90;50.50;;;;;;4176942;28;20417;-60
2021/11/03 01:45:08;;;;;;;2.92;1.80;;;26.00;50.70;;;;;;4173208;28;20037;-58
2021/11/03 01:47:51;;;;;;;4.22;1.75;;;26.00;50.70;;;;;;4177844;28;20108;-58
2021/11/03 01:50:17;;;;;;;4.22;1.70;;;26.00;50.90;;;;;;4177554;28;20036;-60
2021/11/03 01:52:41;;;;;;;3.75;2.03;;;26.00;50.90;;;;;;4191168;28;20048;-60
2021/11/03 01:55:05;;;;;;;4.60;1.50;;;26.00;51.00;;;;;;4180916;28;20025;-60
2021/11/03 01:57:32;;;;;;;2.65;1.45;;;26.10;51.10;;;;;;4182213;28;20151;-59
2021/11/03 01:59:59;;;;;;;4.90;2.00;;;26.10;51.10;;;;;;4183039;28;21165;-60
2021/11/03 02:02:22;;;;;;;3.80;1.48;;;26.10;50.80;;;;;;4184279;28;20040;-63
2021/11/03 02:04:46;;;;;;;4.40;1.20;;;26.10;51.50;;;;;;4179557;28;20033;-63
2021/11/03 02:07:18;;;;;;;4.55;1.65;;;26.20;51.70;;;;;;4183422;28;20051;-61
2021/11/03 02:09:43;;;;;;;4.55;1.55;;;26.10;51.50;;;;;;4173949;28;20148;-62
2021/11/03 02:12:06;;;;;;;4.35;1.42;;;26.20;51.90;;;;;;4171576;28;20739;-63
2021/11/03 02:14:28;;;;;;;4.25;1.55;;;26.20;51.80;;;;;;4163225;28;20403;-63
2021/11/03 02:16:52;;;;;;;3.92;1.70;;;26.20;51.70;;;;;;4163480;28;20839;-63
2021/11/03 02:19:22;;;;;;;3.22;1.60;;;26.30;51.80;;;;;;4164321;28;20476;-60
2021/11/03 02:22:07;;;;;;;2.60;1.40;;;26.30;51.70;;;;;;4161681;28;20087;-60
2021/11/03 02:24:51;;;;;;;3.60;1.50;;;26.40;51.70;;;;;;4164789;28;20057;-62
2021/11/03 02:27:15;;;;;;;3.03;1.27;;;26.40;51.90;;;;;;4162686;28;20033;-61
2021/11/03 02:29:38;;;;;;;5.13;1.50;;;26.40;51.80;;;;;;4162703;28;20219;-64
2021/11/03 02:32:18;;;;;;;2.75;1.15;;;26.40;51.90;;;;;;4162112;28;20041;-63
2021/11/03 02:34:40;;;;;;;3.15;1.30;;;26.50;52.10;;;;;;4164466;28;20480;-67
2021/11/03 02:37:28;;;;;;;2.85;1.65;;;26.50;52.10;;;;;;4162002;28;20114;-62
2021/11/03 02:39:57;;;;;;;3.60;1.20;;;26.50;52.00;;;;;;4158729;28;20131;-56
2021/11/03 02:42:20;;;;;;;5.88;1.23;;;26.50;51.90;;;;;;4164077;28;20139;-65
2021/11/03 02:44:43;;;;;;;14.40;2.03;;;26.50;51.90;;;;;;4162860;28;20727;-62
2021/11/03 02:47:06;;;;;;;;;;;26.60;51.50;;;;;;4164529;28;20040;-61
2021/11/03 02:49:28;;;;;;;7.90;1.70;;;26.60;51.60;;;;;;4162191;28;20198;-66
2021/11/03 02:51:51;;;;;;;17.05;1.90;;;26.60;51.40;;;;;;4164653;28;20056;-67
2021/11/03 02:54:21;;;;;;;6.90;1.83;;;26.60;51.00;;;;;;4164342;28;20416;-65
2021/11/03 02:56:49;;;;;;;5.35;1.55;;;26.60;50.90;;;;;;4163695;28;20118;-67
2021/11/03 02:59:14;;;;;;;8.15;1.60;;;26.60;50.80;;;;;;4162602;28;20037;-67
2021/11/03 03:01:44;;;;;;;10.90;1.80;;;26.60;50.70;;;;;;4164375;28;20106;-67
2021/11/03 03:04:13;;;;;;;5.25;1.23;;;26.70;50.70;;;;;;4163203;28;20044;-68
2021/11/03 03:06:35;;;;;;;2.42;1.20;;;26.70;50.70;;;;;;4164420;28;20048;-67
2021/11/03 03:08:59;;;;;;;2.97;0.98;;;26.60;50.40;;;;;;4162987;28;20828;-67
2021/11/03 03:11:24;;;;;;;5.07;1.25;;;26.70;50.40;;;;;;4162502;28;20132;-67
2021/11/03 03:13:49;;;;;;;2.60;1.20;;;26.70;51.00;;;;;;4163121;28;20487;-68
2021/11/03 03:16:11;;;;;;;3.15;1.42;;;26.70;50.20;;;;;;4161801;28;20460;-69
2021/11/03 03:18:34;;;;;;;4.78;1.40;;;26.70;50.20;;;;;;4161192;28;20029;-65
2021/11/03 03:20:57;;;;;;;4.88;1.50;;;26.70;50.10;;;;;;4162685;28;20063;-65
2021/11/03 03:23:19;;;;;;;2.85;1.35;;;26.70;50.10;;;;;;4163520;28;20130;-67
2021/11/03 03:25:43;;;;;;;2.58;1.10;;;26.70;50.10;;;;;;4164596;28;20507;-67
2021/11/03 03:28:05;;;;;;;2.42;0.95;;;26.70;50.10;;;;;;4165296;28;20480;-65
2021/11/03 03:30:28;;;;;;;2.53;1.10;;;26.80;50.00;;;;;;4161871;28;20033;-67
2021/11/03 03:32:50;;;;;;;2.50;1.20;;;26.80;50.00;;;;;;4165945;28;20052;-66
2021/11/03 03:35:14;;;;;;;4.35;1.15;;;26.80;50.00;;;;;;4166535;28;20064;-67
2021/11/03 03:37:36;;;;;;;4.18;1.08;;;26.80;50.00;;;;;;4161980;28;20637;-65
2021/11/03 03:39:59;;;;;;;4.40;1.20;;;26.80;49.90;;;;;;4164904;28;20068;-66
2021/11/03 03:42:21;;;;;;;2.67;1.00;;;26.80;49.90;;;;;;4162246;28;20523;-66
2021/11/03 03:44:44;;;;;;;1.98;1.00;;;26.90;49.90;;;;;;4164308;28;20120;-66
2021/11/03 03:47:07;;;;;;;2.87;1.13;;;26.90;49.90;;;;;;4162850;28;20037;-66
2021/11/03 03:49:31;;;;;;;1.87;1.10;;;26.90;49.90;;;;;;4158873;28;20286;-66
2021/11/03 03:51:55;;;;;;;3.67;0.90;;;26.90;49.80;;;;;;4162362;28;20118;-66
2021/11/03 03:54:17;;;;;;;2.55;1.02;;;26.90;49.30;;;;;;4165094;28;20029;-65
2021/11/03 03:56:40;;;;;;;2.00;1.08;;;26.90;49.80;;;;;;4161698;28;20719;-65
2021/11/03 03:59:02;;;;;;;1.48;0.70;;;27.00;49.80;;;;;;4160227;28;20115;-67
2021/11/03 04:02:14;;;;;;;3.67;0.98;;;27.00;49.30;;;;;;4234124;27;20426;-62
2021/11/03 04:04:36;;;;;;;1.95;0.95;;;27.00;50.00;;;;;;4219407;27;20039;-62
2021/11/03 04:06:59;;;;;;;1.88;0.90;;;27.10;50.00;;;;;;4239764;27;20140;-63
2021/11/03 04:09:21;;;;;;;2.75;0.90;;;27.10;49.90;;;;;;4235554;27;20042;-59
2021/11/03 04:11:44;;;;;;;4.40;1.17;;;27.10;49.80;;;;;;4238791;27;20095;-68
2021/11/03 04:14:07;;;;;;;1.88;1.30;;;27.10;50.90;;;;;;4240853;27;20673;-68
2021/11/03 04:16:30;;;;;;;2.28;1.02;;;27.20;51.50;;;;;;4239230;27;20038;-65
2021/11/03 04:18:52;;;;;;;2.55;1.10;;;27.20;52.00;;;;;;4245903;27;20075;-66
2021/11/03 04:21:15;;;;;;;3.13;1.10;;;27.30;52.00;;;;;;4218172;27;20047;-63
2021/11/03 04:23:37;;;;;;;6.80;1.50;;;27.30;52.10;;;;;;4242658;27;20039;-63
2021/11/03 04:26:00;;;;;;;4.25;0.95;;;27.30;52.30;;;;;;4239555;27;20046;-63
2021/11/03 04:28:23;;;;;;;2.88;1.05;;;27.30;52.30;;;;;;4239723;27;20776;-65
2021/11/03 04:30:46;;;;;;;3.95;1.42;;;27.40;52.30;;;;;;4242870;27;20074;-64
2021/11/03 04:33:08;;;;;;;4.20;1.05;;;27.40;52.30;;;;;;4219734;27;20036;-63
2021/11/03 04:35:32;;;;;;;3.13;1.00;;;27.40;52.20;;;;;;4243360;27;20047;-66
2021/11/03 04:37:55;;;;;;;2.42;0.80;;;27.50;52.30;;;;;;4241141;27;20034;-64
2021/11/03 04:40:20;;;;;;;2.63;0.90;;;27.50;52.40;;;;;;4241180;27;20262;-64
2021/11/03 04:42:43;;;;;;;2.45;1.00;;;27.50;52.70;;;;;;4234377;27;20544;-64
2021/11/03 04:45:07;;;;;;;1.48;0.93;;;27.50;52.30;;;;;;4236976;27;20169;-65
2021/11/03 04:47:28;;;;;;;;;;;27.50;52.40;;;;;;4238065;27;20039;-65
2021/11/03 04:49:51;;;;;;;2.50;0.82;;;27.60;52.40;;;;;;4242207;27;19915;-66
2021/11/03 04:52:14;;;;;;;3.42;0.85;;;27.60;52.40;;;;;;4240896;27;20123;-66
2021/11/03 04:54:36;;;;;;;1.55;1.08;;;27.60;52.50;;;;;;4239390;27;20038;-71
2021/11/03 04:56:59;;;;;;;3.95;1.30;;;27.60;52.50;;;;;;4230586;27;20035;-61
2021/11/03 04:59:23;;;;;;;1.48;0.80;;;27.70;52.60;;;;;;4243260;27;20705;-66
2021/11/03 05:01:46;;;;;;;1.80;0.82;;;27.60;52.60;;;;;;4240581;27;20481;-64
2021/11/03 05:04:08;;;;;;;3.22;1.33;;;27.70;52.70;;;;;;4214395;27;20042;-66
2021/11/03 05:06:33;;;;;;;2.05;0.80;;;27.70;52.70;;;;;;4242070;27;20084;-64
2021/11/03 05:08:56;;;;;;;1.67;0.88;;;27.70;52.70;;;;;;4247530;27;20035;-65
2021/11/03 05:11:18;;;;;;;1.70;0.80;;;27.70;52.70;;;;;;4239690;27;20111;-65
2021/11/03 05:13:41;;;;;;;2.28;0.90;;;27.70;52.80;;;;;;4230889;27;20031;-66
2021/11/03 05:16:04;;;;;;;1.77;0.85;;;27.80;52.70;;;;;;4211263;27;20504;-66
2021/11/03 05:18:26;;;;;;;2.33;1.00;;;27.80;52.70;;;;;;4232328;27;20035;-64
2021/11/03 05:20:49;;;;;;;2.50;0.90;;;27.80;52.60;;;;;;4230536;27;20592;-65
2021/11/03 05:23:11;;;;;;;2.35;1.00;;;27.80;52.50;;;;;;4231126;27;20054;-66
2021/11/03 05:25:34;;;;;;;1.80;0.75;;;27.90;52.50;;;;;;4227486;27;20131;-64
2021/11/03 05:27:57;;;;;;;2.10;0.95;;;27.90;52.50;;;;;;4230667;27;20039;-66
2021/11/03 05:30:21;;;;;;;1.00;0.80;;;27.90;52.50;;;;;;4226578;27;20042;-64
2021/11/03 05:32:44;;;;;;;2.20;0.80;;;28.00;52.50;;;;;;4229525;27;20704;-63
2021/11/03 05:35:07;;;;;;;1.55;0.60;;;28.00;52.50;;;;;;4227029;27;20099;-66
2021/11/03 05:37:30;;;;;;;2.20;0.60;;;28.00;52.30;;;;;;4227565;27;20066;-69
2021/11/03 05:39:53;;;;;;;1.63;0.88;;;28.00;52.20;;;;;;4211752;27;20297;-68
2021/11/03 05:42:15;;;;;;;1.77;0.63;;;28.10;52.20;;;;;;4230562;27;20122;-64
2021/11/03 05:44:38;;;;;;;1.42;0.60;;;28.10;52.10;;;;;;4227730;27;20354;-66
2021/11/03 05:47:01;;;;;;;1.92;0.70;;;28.10;52.10;;;;;;4225416;27;20511;-66
2021/11/03 05:49:26;;;;;;;1.25;0.60;;;28.20;52.10;;;;;;4224913;27;20035;-69
2021/11/03 05:51:49;;;;;;;0.90;0.63;;;28.20;52.10;;;;;;4225499;27;20046;-66
2021/11/03 05:54:12;;;;;;;1.70;0.93;;;28.20;52.10;;;;;;4228605;27;20446;-68
2021/11/03 05:56:35;;;;;;;1.30;0.73;;;28.20;52.10;;;;;;4236093;27;20071;-65
2021/11/03 05:58:59;;;;;;;1.73;1.00;;;28.20;52.10;;;;;;4234076;27;20077;-69
2021/11/03 06:01:22;;;;;;;1.90;0.73;;;28.20;52.10;;;;;;4237220;27;20058;-69
2021/11/03 06:03:45;;;;;;;3.10;0.70;;;28.20;52.10;;;;;;4237220;27;20236;-64
2021/11/03 06:06:08;;;;;;;2.00;1.00;;;28.20;52.10;;;;;;4219205;27;20443;-69
2021/11/03 06:08:30;;;;;;;0.93;0.50;;;28.20;52.10;;;;;;4240987;27;20579;-67
2021/11/03 06:10:53;;;;;;;1.13;0.77;;;28.20;52.10;;;;;;4242640;27;20101;-65
2021/11/03 06:13:17;;;;;;;3.83;1.00;;;28.20;52.10;;;;;;4246942;27;20034;-68
2021/11/03 06:15:39;;;;;;;1.40;0.75;;;28.20;52.10;;;;;;4236945;27;20042;-64
2021/11/03 06:18:03;;;;;;;3.25;1.00;;;28.20;52.10;;;;;;4237122;27;20046;-66
2021/11/03 06:20:26;;;;;;;2.05;0.80;;;28.20;52.00;;;;;;4240055;27;20035;-65
2021/11/03 06:22:48;;;;;;;2.30;1.05;;;28.20;52.00;;;;;;4236629;27;20137;-64
2021/11/03 06:25:13;;;;;;;0.63;0.57;;;28.30;52.00;;;;;;4223540;27;20035;-65
2021/11/03 06:27:35;;;;;;;1.45;0.80;;;28.30;52.00;;;;;;4226447;27;20097;-66
2021/11/03 06:29:58;;;;;;;3.17;1.20;;;28.30;51.90;;;;;;4238144;27;20090;-68
2021/11/03 06:32:20;;;;;;;3.83;0.93;;;28.30;51.80;;;;;;4236861;27;20426;-65
2021/11/03 06:34:43;;;;;;;1.08;0.77;;;28.30;51.80;;;;;;4233232;27;20042;-69
2021/11/03 06:37:07;;;;;;;1.65;0.70;;;28.30;51.80;;;;;;4223109;27;20130;-70
2021/11/03 06:39:31;;;;;;;;;;;28.40;51.80;;;;;;4224541;27;20162;-64
2021/11/03 06:41:53;;;;;;;2.58;0.80;;;28.40;51.70;;;;;;4235549;27;20425;-66
2021/11/03 06:44:16;;;;;;;1.88;0.95;;;28.40;51.70;;;;;;4231722;27;20034;-60
2021/11/03 06:46:39;;;;;;;1.33;0.80;;;28.50;51.50;;;;;;4223907;27;20039;-59
2021/11/03 06:49:03;;;;;;;1.48;0.60;;;28.50;51.60;;;;;;4199309;27;20070;-60
2021/11/03 06:51:25;;;;;;;0.90;0.57;;;28.50;51.60;;;;;;4209848;27;20061;-62
2021/11/03 06:53:47;;;;;;;1.73;0.68;;;28.50;51.00;;;;;;4225288;27;20053;-59
2021/11/03 06:56:11;;;;;;;2.22;1.02;;;28.60;51.00;;;;;;4229540;27;20035;-60
2021/11/03 06:58:33;;;;;;;3.03;0.98;;;28.50;50.30;;;;;;4228973;27;20055;-61
2021/11/03 07:00:58;;;;;;;2.15;0.85;;;28.50;50.40;;;;;;4229244;27;20152;-61
2021/11/03 07:03:23;;;;;;;2.47;1.00;;;28.50;51.00;;;;;;4228152;27;20034;-60
2021/11/03 07:05:47;;;;;;;1.42;0.73;;;28.40;50.30;;;;;;4231728;27;20043;-60
2021/11/03 07:08:09;;;;;;;3.10;1.00;;;28.40;50.30;;;;;;4228428;27;20038;-60
2021/11/03 07:10:36;;;;;;;1.48;0.70;;;28.40;50.40;;;;;;4228284;27;20597;-62
2021/11/03 07:12:58;;;;;;;1.20;0.70;;;28.40;50.50;;;;;;4211160;27;20047;-60
2021/11/03 07:15:21;;;;;;;2.67;1.00;;;28.30;50.40;;;;;;4227056;27;20067;-59
2021/11/03 07:17:44;;;;;;;2.05;0.80;;;28.30;50.50;;;;;;4226750;27;20027;-60
2021/11/03 07:20:07;;;;;;;1.40;0.80;;;28.30;50.70;;;;;;4230047;27;20870;-59
2021/11/03 07:22:30;;;;;;;2.22;0.90;;;28.30;50.90;;;;;;4214217;27;20043;-61
2021/11/03 07:24:54;;;;;;;2.97;1.02;;;28.20;50.90;;;;;;4228313;27;20035;-59
2021/11/03 07:27:15;;;;;;;;;;;28.30;51.10;;;;;;4226993;27;20047;-58
2021/11/03 07:29:40;;;;;;;0.80;0.50;;;28.30;51.30;;;;;;4222346;27;19951;-60
2021/11/03 07:32:03;;;;;;;2.00;0.85;;;28.20;51.30;;;;;;4223644;27;20038;-60
2021/11/03 07:34:26;;;;;;;1.85;0.70;;;28.30;51.40;;;;;;4223427;27;20035;-61
2021/11/03 07:36:49;;;;;;;2.10;0.82;;;28.30;51.60;;;;;;4223718;27;20039;-60
2021/11/03 07:39:12;;;;;;;1.40;0.60;;;28.30;51.60;;;;;;4223007;27;20374;-62
2021/11/03 07:41:35;;;;;;;4.82;0.90;;;28.20;51.50;;;;;;4222316;27;20100;-59
2021/11/03 07:43:58;;;;;;;2.08;1.08;;;28.20;51.60;;;;;;4223688;27;20118;-60
2021/11/03 07:46:22;;;;;;;1.88;0.85;;;28.20;51.70;;;;;;4223506;27;20033;-60
2021/11/03 07:48:45;;;;;;;1.75;0.60;;;28.20;51.80;;;;;;4217084;27;20050;-61
2021/11/03 07:51:15;;;;;;;3.38;1.15;;;28.20;51.80;;;;;;4219498;27;20035;-61
2021/11/03 07:53:38;;;;;;;2.25;1.30;;;28.20;51.90;;;;;;4223097;27;20433;-60
2021/11/03 07:56:05;;;;;;;2.00;1.30;;;28.20;52.00;;;;;;4219598;27;20039;-61
2021/11/03 07:58:31;;;;;;;2.15;1.27;;;28.20;52.10;;;;;;4222282;27;20625;-59
2021/11/03 08:00:55;;;;;;;2.35;1.35;;;28.20;51.90;;;;;;4220251;27;20638;-60
2021/11/03 08:03:18;;;;;;;2.13;1.20;;;28.20;51.20;;;;;;4223134;27;20035;-60
2021/11/03 08:05:41;;;;;;;4.40;1.27;;;28.20;51.60;;;;;;4219638;27;20031;-60
2021/11/03 08:08:10;;;;;;;1.83;1.02;;;28.20;51.60;;;;;;4222455;27;20114;-66
2021/11/03 08:10:32;;;;;;;11.88;1.80;;;28.20;51.70;;;;;;4224024;27;20143;-66
2021/11/03 08:12:56;;;;;;;3.40;1.92;;;28.20;52.10;;;;;;4206717;27;20036;-66
2021/11/03 08:15:19;;;;;;;8.82;1.00;;;28.20;52.30;;;;;;4219422;27;20035;-64
2021/11/03 08:17:42;;;;;;;2.60;1.13;;;28.20;50.90;;;;;;4208305;27;20073;-65
2021/11/03 08:20:15;;;;;;;6.20;1.67;;;28.20;50.70;;;;;;4221675;27;20031;-65
2021/11/03 08:22:41;;;;;;;4.47;1.20;;;28.20;50.50;;;;;;4223539;27;20145;-64
2021/11/03 08:25:04;;;;;;;4.00;1.60;;;28.20;50.30;;;;;;4222901;27;20039;-65
2021/11/03 08:27:27;;;;;;;7.60;1.63;;;28.10;50.10;;;;;;4218456;27;20039;-64
2021/11/03 08:29:51;;;;;;;3.13;0.98;;;28.10;49.80;;;;;;4220377;27;20075;-65
2021/11/03 08:32:18;;;;;;;5.15;1.42;;;28.10;49.30;;;;;;4218364;27;20071;-64
2021/11/03 08:34:41;;;;;;;3.47;1.15;;;28.10;49.20;;;;;;4219904;27;20088;-64
2021/11/03 08:37:15;;;;;;;6.93;1.58;;;28.10;49.10;;;;;;4219357;27;20039;-64
2021/11/03 08:39:39;;;;;;;;;;;28.10;49.00;;;;;;4219006;27;20085;-65
2021/11/03 08:42:01;;;;;;;;;;;28.00;48.80;;;;;;4223131;27;19923;-63
2021/11/03 08:44:25;;;;;;;5.28;1.60;;;28.00;48.90;;;;;;4221604;27;19968;-65
2021/11/03 08:46:47;;;;;;;5.70;1.60;;;28.00;48.90;;;;;;4223402;27;20115;-65
2021/11/03 08:49:10;;;;;;;3.60;1.40;;;28.00;48.90;;;;;;4225349;27;20039;-65
2021/11/03 08:51:34;;;;;;;4.93;1.30;;;27.90;48.80;;;;;;4226955;27;20791;-63
2021/11/03 08:53:57;;;;;;;2.95;1.20;;;27.90;48.80;;;;;;4206306;27;20119;-63
2021/11/03 08:56:19;;;;;;;6.78;1.83;;;27.90;48.90;;;;;;4221218;27;20041;-65
2021/11/03 08:58:42;;;;;;;5.32;2.00;;;27.90;49.00;;;;;;4223419;27;20047;-64
2021/11/03 09:01:05;;;;;;;5.40;1.80;;;27.90;49.10;;;;;;4226251;27;20142;-64
2021/11/03 09:03:28;;;;;;;5.25;1.52;;;27.80;49.10;;;;;;4225743;27;20038;-65
2021/11/03 09:05:52;;;;;;;3.65;1.52;;;27.90;49.30;;;;;;4224059;27;20080;-65
2021/11/03 09:08:16;;;;;;;4.88;1.60;;;27.80;49.20;;;;;;4223106;27;20362;-65
2021/11/03 09:10:45;;;;;;;6.78;1.65;;;27.80;49.00;;;;;;4221622;27;20035;-65
2021/11/03 09:13:08;;;;;;;5.85;1.63;;;27.80;49.10;;;;;;4208166;27;20066;-65
2021/11/03 09:15:30;;;;;;;3.42;1.60;;;27.80;49.00;;;;;;4223670;27;20859;-65
2021/11/03 09:17:53;;;;;;;6.18;1.42;;;27.70;49.00;;;;;;4226415;27;20042;-70
2021/11/03 09:20:17;;;;;;;5.57;1.63;;;27.70;49.00;;;;;;4223492;27;20043;-71
2021/11/03 09:22:40;;;;;;;2.53;1.52;;;27.70;49.50;;;;;;4225650;27;20752;-68
2021/11/03 09:25:04;;;;;;;5.18;1.92;;;27.70;49.30;;;;;;4223368;27;20115;-68
2021/11/03 09:27:27;;;;;;;2.65;1.23;;;27.70;49.20;;;;;;4224927;27;20062;-69
2021/11/03 09:29:51;;;;;;;2.72;1.50;;;27.70;49.10;;;;;;4225222;27;20422;-66
2021/11/03 09:32:16;;;;;;;4.63;1.60;;;27.70;49.30;;;;;;4224313;27;20430;-65
2021/11/03 09:34:41;;;;;;;6.88;1.10;;;27.60;49.30;;;;;;4225924;27;20043;-70
2021/11/03 09:37:04;;;;;;;8.93;1.83;;;27.60;49.40;;;;;;4230283;27;20116;-69
2021/11/03 09:39:27;;;;;;;4.15;1.15;;;27.60;49.30;;;;;;4232555;27;20093;-69
2021/11/03 09:41:53;;;;;;;5.90;1.73;;;27.60;49.40;;;;;;4229917;27;20050;-69
2021/11/03 09:44:19;;;;;;;3.13;1.42;;;27.60;49.60;;;;;;4230592;27;20030;-67
2021/11/03 09:47:14;;;;;;;3.22;1.15;;;27.50;49.60;;;;;;4232226;27;20537;-66
2021/11/03 09:49:44;;;;;;;3.92;1.27;;;27.50;49.50;;;;;;4232089;27;20034;-68
2021/11/03 09:52:33;;;;;;;3.63;1.60;;;27.50;49.30;;;;;;4231309;27;20211;-66
2021/11/03 09:55:01;;;;;;;4.03;1.30;;;27.50;49.30;;;;;;4229007;27;20034;-64
2021/11/03 09:57:35;;;;;;;5.25;1.50;;;27.50;49.10;;;;;;4231127;27;20062;-65
2021/11/03 10:00:13;;;;;;;4.47;1.65;;;27.40;49.10;;;;;;4216973;27;20138;-68
2021/11/03 10:02:38;;;;;;;4.72;1.88;;;27.40;48.70;;;;;;4232098;27;20050;-64
2021/11/03 10:05:18;;;;;;;3.22;1.45;;;27.40;48.70;;;;;;4232810;27;20072;-68
2021/11/03 10:08:00;;;;;;;6.85;1.98;;;27.30;48.80;;;;;;4232618;27;20105;-67
2021/11/03 10:10:42;;;;;;;3.95;1.70;;;27.30;48.90;;;;;;4233096;27;20046;-64
2021/11/03 10:13:25;;;;;;;4.75;1.55;;;27.30;49.10;;;;;;4234053;27;20242;-63
2021/11/03 10:16:00;;;;;;;2.60;1.40;;;27.30;49.20;;;;;;4230419;27;20073;-66
2021/11/03 10:18:24;;;;;;;4.68;1.85;;;27.20;48.50;;;;;;4235593;27;20114;-66
2021/11/03 10:21:01;;;;;;;4.18;1.73;;;27.20;48.70;;;;;;4236763;27;20039;-70
2021/11/03 10:23:26;;;;;;;4.70;1.45;;;27.10;48.90;;;;;;4235022;27;20046;-66
2021/11/03 10:26:04;;;;;;;5.68;1.63;;;27.10;49.00;;;;;;4236672;27;20039;-65
2021/11/03 10:28:40;;;;;;;4.65;1.35;;;27.10;49.40;;;;;;4220990;27;20061;-61
2021/11/03 10:31:08;;;;;;;4.43;1.30;;;27.10;49.40;;;;;;4230125;27;20062;-65
2021/11/03 10:33:39;;;;;;;4.72;1.75;;;27.10;49.90;;;;;;4228521;27;20057;-67
2021/11/03 10:36:19;;;;;;;4.28;1.83;;;27.10;49.90;;;;;;4227641;27;20798;-64
2021/11/03 10:38:56;;;;;;;3.00;1.30;;;27.10;50.00;;;;;;4229267;27;20058;-64
2021/11/03 10:41:24;;;;;;;5.47;1.63;;;27.10;50.20;;;;;;4231668;27;20072;-62
2021/11/03 10:44:03;;;;;;;3.00;1.40;;;27.10;50.10;;;;;;4227581;27;20165;-62
2021/11/03 10:46:30;;;;;;;2.75;1.48;;;27.10;50.30;;;;;;4228882;27;20031;-60
2021/11/03 10:49:15;;;;;;;5.05;1.58;;;27.10;50.40;;;;;;4228405;27;20038;-64
2021/11/03 10:51:40;;;;;;;4.80;1.55;;;27.00;50.40;;;;;;4230660;27;20043;-65
2021/11/03 10:54:11;;;;;;;4.10;1.45;;;27.00;50.30;;;;;;4227891;27;20043;-66
2021/11/03 10:56:46;;;;;;;3.33;1.20;;;27.00;50.30;;;;;;4228511;27;20031;-63
2021/11/03 10:59:18;;;;;;;3.33;1.58;;;27.00;50.50;;;;;;4230926;27;20047;-65
2021/11/03 11:01:50;;;;;;;3.72;1.58;;;27.00;50.50;;;;;;4230069;27;20055;-64
2021/11/03 11:04:36;;;;;;;4.55;1.40;;;27.00;50.50;;;;;;4229211;27;20039;-64
2021/11/03 11:07:19;;;;;;;4.25;1.63;;;27.00;50.70;;;;;;4228551;27;20093;-62
2021/11/03 11:09:48;;;;;;;3.03;1.50;;;27.00;50.80;;;;;;4223643;27;20064;-63
2021/11/03 11:12:22;;;;;;;5.75;1.50;;;27.00;50.80;;;;;;4227770;27;20050;-66
2021/11/03 11:14:45;;;;;;;3.88;1.80;;;27.00;50.90;;;;;;4210609;27;20036;-65
2021/11/03 11:17:35;;;;;;;4.35;1.50;;;26.90;51.00;;;;;;4213686;27;20148;-63
2021/11/03 11:20:38;;;;;;;3.53;1.27;;;27.00;51.00;;;;;;4229535;27;20050;-66
2021/11/03 11:23:20;;;;;;;2.50;0.95;;;26.90;51.00;;;;;;4226113;27;20067;-62
2021/11/03 11:26:01;;;;;;;2.85;1.33;;;26.90;51.10;;;;;;4229045;27;20043;-64
2021/11/03 11:28:35;;;;;;;4.32;1.55;;;26.90;51.30;;;;;;4226892;27;20087;-64
2021/11/03 11:31:04;;;;;;;4.53;1.42;;;26.90;50.70;;;;;;4227674;27;20082;-64
2021/11/03 11:33:34;;;;;;;2.45;1.27;;;26.90;50.20;;;;;;4226461;27;20676;-60
2021/11/03 11:36:46;;;;;;;4.93;1.80;;;26.80;50.10;;;;;;4227322;27;20043;-64
2021/11/03 11:39:24;;;;;;;3.80;1.50;;;26.80;49.90;;;;;;4201150;27;20039;-63
2021/11/03 11:41:52;;;;;;;3.60;1.40;;;26.80;50.50;;;;;;4228196;27;20045;-66
2021/11/03 11:44:18;;;;;;;4.82;1.80;;;26.80;49.80;;;;;;4231028;27;20107;-65
2021/11/03 11:46:43;;;;;;;4.75;1.70;;;26.80;49.40;;;;;;4228342;27;20054;-67
2021/11/03 11:49:30;;;;;;;4.53;1.30;;;26.80;49.80;;;;;;4231302;27;20031;-70
2021/11/03 11:51:58;;;;;;;3.50;1.70;;;26.80;49.90;;;;;;4225843;27;20069;-65
2021/11/03 11:54:32;;;;;;;5.55;1.73;;;26.80;49.90;;;;;;4227193;27;20154;-64
2021/11/03 11:57:22;;;;;;;5.68;1.88;;;26.70;49.90;;;;;;4227203;27;20062;-61
2021/11/03 12:00:09;;;;;;;3.63;1.42;;;26.70;50.00;;;;;;4227794;27;20035;-64
2021/11/03 12:02:34;;;;;;;2.85;1.40;;;26.70;49.90;;;;;;4228018;27;20101;-64
2021/11/03 12:05:20;;;;;;;4.50;1.52;;;26.70;49.80;;;;;;4211544;27;20127;-63
2021/11/03 12:07:43;;;;;;;7.22;1.63;;;26.70;49.90;;;;;;4228121;27;20089;-65
2021/11/03 12:10:25;;;;;;;4.97;1.70;;;26.70;49.80;;;;;;4226287;27;20417;-66
2021/11/03 12:13:06;;;;;;;4.57;1.35;;;26.70;49.70;;;;;;4226827;27;20067;-63
2021/11/03 12:16:04;;;;;;;3.72;1.55;;;26.60;49.70;;;;;;4226629;27;20100;-62
2021/11/03 12:18:30;;;;;;;4.72;1.38;;;26.60;49.70;;;;;;4186287;28;20069;-64
2021/11/03 12:20:58;;;;;;;2.95;1.40;;;26.60;49.90;;;;;;4216071;27;20454;-62
2021/11/03 12:23:41;;;;;;;4.22;1.70;;;26.60;49.90;;;;;;4227828;27;20050;-60
2021/11/03 12:26:25;;;;;;;4.20;1.20;;;26.60;50.20;;;;;;4229251;27;20100;-60
2021/11/03 12:29:00;;;;;;;6.00;1.63;;;26.50;49.90;;;;;;4230260;27;20123;-61
2021/11/03 12:31:47;;;;;;;2.65;1.38;;;26.50;50.20;;;;;;4224061;27;21095;-60
2021/11/03 12:34:10;;;;;;;4.00;1.52;;;26.50;50.00;;;;;;4231103;27;20402;-63
2021/11/03 12:36:53;;;;;;;3.70;1.33;;;26.50;50.00;;;;;;4231034;27;20023;-60
2021/11/03 12:39:41;;;;;;;4.65;1.63;;;26.50;50.00;;;;;;4203526;27;20034;-62
2021/11/03 12:42:25;;;;;;;3.85;1.63;;;26.50;50.00;;;;;;4229762;27;20043;-62
2021/11/03 12:45:27;;;;;;;3.00;1.38;;;26.50;50.00;;;;;;4232156;27;20446;-63
2021/11/03 12:48:02;;;;;;;6.60;1.40;;;26.50;50.00;;;;;;4177798;27;21340;-59